createdAt,value
2022-08-09T00:01:05.200Z,102828.28
2022-08-09T00:04:03.730Z,102825.91
2022-08-09T00:06:24.437Z,102822.63
2022-08-09T00:08:51.937Z,102817.88
2022-08-09T00:11:24.273Z,102826.78
2022-08-09T00:13:51.729Z,102820.88
2022-08-09T00:16:26.150Z,102808.81
2022-08-09T00:19:03.725Z,102813.63
2022-08-09T00:21:37.645Z,102812.78
2022-08-09T00:24:09.449Z,102810.34
2022-08-09T00:26:36.765Z,102815.25
2022-08-09T00:29:03.868Z,102814.28
2022-08-09T00:31:58.617Z,102815.25
2022-08-09T00:34:25.324Z,102814.94
2022-08-09T00:36:52.657Z,102811.66
2022-08-09T00:40:13.928Z,102809.34
2022-08-09T00:44:19.389Z,102805.59
2022-08-09T00:44:52.013Z,102807.13
2022-08-09T00:47:20.301Z,102812.56
2022-08-09T00:49:52.534Z,102808.44
2022-08-09T00:52:22.421Z,102810.28
2022-08-09T00:54:54.664Z,102812.91
2022-08-09T00:57:33.990Z,102811.28
2022-08-09T01:00:22.049Z,102812.25
2022-08-09T01:02:53.553Z,102818.53
2022-08-09T01:05:51.834Z,102819.03
2022-08-09T01:08:27.072Z,102830.72
2022-08-09T01:11:16.321Z,102828.78
2022-08-09T01:13:58.735Z,102822.56
2022-08-09T01:16:30.484Z,102822.13
2022-08-09T01:19:02.606Z,102822.44
2022-08-09T01:21:50.909Z,102826.41
2022-08-09T01:24:17.945Z,102828.88
2022-08-09T01:26:55.901Z,102825.25
2022-08-09T01:29:41.128Z,102829.34
2022-08-09T01:32:31.031Z,102825.72
2022-08-09T01:35:07.037Z,102820.47
2022-08-09T01:38:10.122Z,102827.19
2022-08-09T01:40:33.829Z,102829.00
2022-08-09T01:43:04.448Z,102827.69
2022-08-09T01:45:34.388Z,102828.72
2022-08-09T01:48:11.240Z,102832.47
2022-08-09T01:50:48.322Z,102834.66
2022-08-09T01:53:19.819Z,102834.81
2022-08-09T01:55:47.851Z,102830.25
2022-08-09T01:58:15.673Z,102826.13
2022-08-09T02:00:46.219Z,102828.63
2022-08-09T02:03:19.324Z,102825.50
2022-08-09T02:06:04.021Z,102830.47
2022-08-09T02:08:57.940Z,102834.25
2022-08-09T02:11:23.681Z,102828.31
2022-08-09T02:14:02.180Z,102832.13
2022-08-09T02:16:59.133Z,102832.63
2022-08-09T02:19:24.099Z,102831.34
2022-08-09T02:22:08.459Z,102828.53
2022-08-09T02:24:37.919Z,102836.44
2022-08-09T02:27:08.286Z,102839.41
2022-08-09T02:29:44.964Z,102830.06
2022-08-09T02:32:18.208Z,102843.34
2022-08-09T02:34:55.536Z,102839.25
2022-08-09T02:37:31.720Z,102831.69
2022-08-09T02:40:04.765Z,102834.47
2022-08-09T02:42:42.880Z,102831.84
2022-08-09T02:45:15.944Z,102829.75
2022-08-09T02:47:57.584Z,102830.72
2022-08-09T02:50:30.928Z,102835.97
2022-08-09T02:53:02.491Z,102833.34
2022-08-09T02:55:46.306Z,102829.91
2022-08-09T02:58:32.313Z,102827.28
2022-08-09T03:01:04.474Z,102827.28
2022-08-09T03:03:37.289Z,102823.19
2022-08-09T03:06:23.487Z,102817.44
2022-08-09T03:08:52.915Z,102811.69
2022-08-09T03:12:06.362Z,102813.66
2022-08-09T03:14:08.369Z,102808.59
2022-08-09T03:16:41.704Z,102807.06
2022-08-09T03:19:14.422Z,102809.69
2022-08-09T03:21:59.813Z,102810.03
2022-08-09T03:24:42.685Z,102806.25
2022-08-09T03:27:17.144Z,102809.19
2022-08-09T03:29:57.571Z,102818.06
2022-08-09T03:32:30.242Z,102821.88
2022-08-09T03:34:58.206Z,102822.03
2022-08-09T03:37:55.774Z,102812.81
2022-08-09T03:40:13.312Z,102812.00
2022-08-09T03:42:43.171Z,102812.66
2022-08-09T03:45:10.913Z,102816.09
2022-08-09T03:47:41.800Z,102816.25
2022-08-09T03:50:12.065Z,102812.19
2022-08-09T03:52:40.542Z,102821.03
2022-08-09T03:55:10.478Z,102814.47
2022-08-09T03:57:44.695Z,102815.13
2022-08-09T04:00:24.394Z,102817.59
2022-08-09T04:02:53.910Z,102823.31
2022-08-09T04:05:27.369Z,102818.38
2022-08-09T04:07:57.167Z,102822.66
2022-08-09T04:10:29.239Z,102824.44
2022-08-09T04:13:01.084Z,102830.84
2022-08-09T04:15:42.807Z,102829.19
2022-08-09T04:18:16.577Z,102828.72
2022-08-09T04:20:46.087Z,102830.03
2022-08-09T04:23:17.217Z,102831.50
2022-08-09T04:25:52.253Z,102836.38
2022-08-09T04:28:33.647Z,102840.00
2022-08-09T04:31:08.290Z,102841.63
2022-08-09T04:33:52.057Z,102846.88
2022-08-09T04:36:25.157Z,102851.81
2022-08-09T04:38:53.470Z,102852.50
2022-08-09T04:41:23.655Z,102850.16
2022-08-09T04:44:05.829Z,102849.88
2022-08-09T04:46:37.572Z,102852.16
2022-08-09T04:49:40.726Z,102852.16
2022-08-09T04:52:09.676Z,102861.72
2022-08-09T04:54:36.418Z,102859.91
2022-08-09T04:57:03.843Z,102865.34
2022-08-09T04:59:30.626Z,102866.00
2022-08-09T05:01:57.042Z,102869.44
2022-08-09T05:04:23.471Z,102875.03
2022-08-09T05:06:57.910Z,102871.75
2022-08-09T05:09:24.700Z,102875.53
2022-08-09T05:11:51.553Z,102866.81
2022-08-09T05:14:18.551Z,102873.94
2022-08-09T05:16:58.847Z,102871.94
2022-08-09T05:19:31.882Z,102877.03
2022-08-09T05:22:33.260Z,102880.31
2022-08-09T05:24:57.527Z,102880.13
2022-08-09T05:27:28.847Z,102890.59
2022-08-09T05:29:57.499Z,102884.31
2022-08-09T05:32:25.439Z,102877.81
2022-08-09T05:34:51.816Z,102886.34
2022-08-09T05:37:18.272Z,102887.19
2022-08-09T05:39:44.851Z,102884.94
2022-08-09T05:42:17.874Z,102890.38
2022-08-09T05:45:01.028Z,102892.16
2022-08-09T05:47:30.458Z,102898.72
2022-08-09T05:50:28.170Z,102898.97
2022-08-09T05:52:53.473Z,102904.31
2022-08-09T05:55:21.693Z,102905.75
2022-08-09T05:57:55.987Z,102909.91
2022-08-09T06:00:26.228Z,102914.38
2022-08-09T06:02:56.891Z,102914.78
2022-08-09T06:05:50.652Z,102919.75
2022-08-09T06:08:11.716Z,102909.09
2022-08-09T06:10:38.834Z,102910.53
2022-08-09T06:13:18.584Z,102919.47
2022-08-09T06:15:47.549Z,102915.13
2022-08-09T06:18:17.607Z,102909.28
2022-08-09T06:20:54.128Z,102904.41
2022-08-09T06:23:21.013Z,102908.66
2022-08-09T06:25:49.183Z,102930.59
2022-08-09T06:28:16.046Z,102935.97
2022-08-09T06:30:43.456Z,102923.47
2022-08-09T06:33:40.523Z,102923.19
2022-08-09T06:35:58.439Z,102913.06
2022-08-09T06:38:36.332Z,102920.75
2022-08-09T06:41:04.449Z,102925.75
2022-08-09T06:43:34.385Z,102928.81
2022-08-09T06:46:06.398Z,102930.75
2022-08-09T06:48:37.012Z,102928.81
2022-08-09T06:51:10.840Z,102930.22
2022-08-09T06:53:39.068Z,102936.97
2022-08-09T06:56:07.677Z,102935.09
2022-08-09T07:00:47.764Z,102938.50
2022-08-09T07:01:24.246Z,102936.22
2022-08-09T07:04:03.727Z,102940.63
2022-08-09T07:06:30.713Z,102941.66
2022-08-09T07:08:57.844Z,102951.91
2022-08-09T07:11:25.574Z,102951.25
2022-08-09T07:14:05.419Z,102946.19
2022-08-09T07:16:39.325Z,102955.06
2022-08-09T07:19:09.551Z,102953.16
2022-08-09T07:21:41.664Z,102951.41
2022-08-09T07:24:22.449Z,102950.69
2022-08-09T07:27:00.649Z,102940.06
2022-08-09T07:29:30.758Z,102945.41
2022-08-09T07:32:04.945Z,102942.56
2022-08-09T07:34:32.204Z,102936.81
2022-08-09T07:37:02.700Z,102946.00
2022-08-09T07:39:40.864Z,102934.03
2022-08-09T07:42:09.377Z,102939.19
2022-08-09T07:44:53.197Z,102940.16
2022-08-09T07:47:20.994Z,102944.97
2022-08-09T07:50:08.550Z,102934.84
2022-08-09T07:52:36.134Z,102933.91
2022-08-09T07:55:08.626Z,102933.91
2022-08-09T07:57:36.048Z,102927.28
2022-08-09T08:00:05.171Z,102938.25
2022-08-09T08:02:36.006Z,102944.38
2022-08-09T08:05:17.511Z,102934.88
2022-08-09T08:08:42.582Z,102933.94
2022-08-09T08:10:31.579Z,102932.31
2022-08-09T08:13:01.619Z,102936.88
2022-08-09T08:15:35.277Z,102931.59
2022-08-09T08:18:02.018Z,102936.44
2022-08-09T08:20:33.040Z,102932.66
2022-08-09T08:23:16.248Z,102936.94
2022-08-09T08:25:50.407Z,102947.53
2022-08-09T08:28:31.803Z,102945.72
2022-08-09T08:30:59.204Z,102950.16
2022-08-09T08:33:25.600Z,102943.94
2022-08-09T08:36:07.615Z,102951.47
2022-08-09T08:38:34.879Z,102942.56
2022-08-09T08:41:05.764Z,102951.72
2022-08-09T08:43:33.579Z,102949.81
2022-08-09T08:46:31.689Z,102949.81
2022-08-09T08:48:53.532Z,102950.06
2022-08-09T08:51:22.381Z,102953.75
2022-08-09T08:54:03.685Z,102953.31
2022-08-09T08:56:35.936Z,102954.06
2022-08-09T08:59:19.850Z,102947.75
2022-08-09T09:01:56.679Z,102952.56
2022-08-09T09:04:31.074Z,102955.38
2022-08-09T09:07:08.155Z,102952.50
2022-08-09T09:09:57.951Z,102943.78
2022-08-09T09:12:29.397Z,102948.44
2022-08-09T09:14:58.625Z,102953.44
2022-08-09T09:17:25.086Z,102949.31
2022-08-09T09:20:15.493Z,102949.38
2022-08-09T09:22:51.929Z,102952.50
2022-08-09T09:26:04.509Z,102949.28
2022-08-09T09:29:01.959Z,102945.66
2022-08-09T09:32:04.140Z,102940.66
2022-08-09T09:34:15.165Z,102937.03
2022-08-09T09:36:53.092Z,102936.53
2022-08-09T09:39:42.767Z,102935.59
2022-08-09T09:42:22.437Z,102940.50
2022-08-09T09:45:03.179Z,102943.06
2022-08-09T09:47:30.190Z,102950.81
2022-08-09T09:50:15.258Z,102944.91
2022-08-09T09:52:54.511Z,102937.16
2022-08-09T09:55:28.227Z,102935.28
2022-08-09T09:58:16.571Z,102936.19
2022-08-09T10:00:58.867Z,102945.03
2022-08-09T10:03:44.662Z,102937.59
2022-08-09T10:06:23.170Z,102938.22
2022-08-09T10:08:54.891Z,102942.06
2022-08-09T10:12:00.091Z,102944.69
2022-08-09T10:14:33.847Z,102939.34
2022-08-09T10:17:40.559Z,102943.81
2022-08-09T10:19:57.148Z,102939.28
2022-08-09T10:22:36.840Z,102928.78
2022-08-09T10:25:11.658Z,102930.44
2022-08-09T10:27:45.155Z,102931.50
2022-08-09T10:32:21.049Z,102927.66
2022-08-09T10:34:08.941Z,102924.31
2022-08-09T10:36:03.305Z,102923.78
2022-08-09T10:38:54.946Z,102919.44
2022-08-09T10:41:18.735Z,102922.66
2022-08-09T10:43:59.331Z,102919.84
2022-08-09T10:47:00.573Z,102910.59
2022-08-09T10:50:03.120Z,102914.06
2022-08-09T10:52:54.080Z,102907.03
2022-08-09T10:55:25.955Z,102908.66
2022-08-09T10:57:55.705Z,102910.84
2022-08-09T11:00:41.826Z,102900.28
2022-08-09T11:03:47.070Z,102898.19
2022-08-09T11:06:15.922Z,102907.88
2022-08-09T11:08:47.575Z,102909.91
2022-08-09T11:11:15.330Z,102902.75
2022-08-09T11:13:50.445Z,102897.34
2022-08-09T11:16:38.689Z,102895.47
2022-08-09T11:19:09.852Z,102900.56
2022-08-09T11:22:04.869Z,102895.72
2022-08-09T11:25:16.130Z,102895.66
2022-08-09T11:28:05.538Z,102898.59
2022-08-09T11:30:36.740Z,102901.34
2022-08-09T11:33:16.643Z,102881.00
2022-08-09T11:35:57.265Z,102889.38
2022-08-09T11:38:33.278Z,102888.81
2022-08-09T11:41:24.385Z,102882.56
2022-08-09T11:44:04.302Z,102873.75
2022-08-09T11:46:51.643Z,102875.91
2022-08-09T11:49:28.181Z,102867.22
2022-08-09T11:53:03.701Z,102867.47
2022-08-09T11:55:51.469Z,102877.47
2022-08-09T11:58:15.368Z,102880.28
2022-08-09T12:00:52.904Z,102879.16
2022-08-09T12:03:54.824Z,102884.88
2022-08-09T12:06:18.395Z,102876.81
2022-08-09T12:08:56.007Z,102864.94
2022-08-09T12:11:26.984Z,102860.81
2022-08-09T12:14:09.977Z,102867.91
2022-08-09T12:16:43.573Z,102858.28
2022-08-09T12:19:12.035Z,102858.41
2022-08-09T12:21:48.400Z,102858.31
2022-08-09T12:24:24.570Z,102854.00
2022-08-09T12:28:58.891Z,102846.34
2022-08-09T12:29:52.281Z,102839.19
2022-08-09T12:32:26.847Z,102835.09
2022-08-09T12:34:59.109Z,102841.91
2022-08-09T12:37:33.819Z,102833.78
2022-08-09T12:40:16.326Z,102831.06
2022-08-09T12:42:44.252Z,102821.78
2022-08-09T12:45:33.951Z,102832.72
2022-08-09T12:47:57.987Z,102827.50
2022-08-09T12:50:25.151Z,102832.16
2022-08-09T12:53:17.363Z,102822.88
2022-08-09T12:56:16.042Z,102830.59
2022-08-09T12:58:28.260Z,102830.25
2022-08-09T13:00:56.459Z,102829.47
2022-08-09T13:03:57.108Z,102833.44
2022-08-09T13:06:42.034Z,102820.44
2022-08-09T13:09:23.360Z,102817.72
2022-08-09T13:12:01.954Z,102819.91
2022-08-09T13:14:41.697Z,102831.44
2022-08-09T13:17:44.259Z,102827.78
2022-08-09T13:20:09.981Z,102830.00
2022-08-09T13:23:00.993Z,102819.97
2022-08-09T13:25:53.349Z,102829.59
2022-08-09T13:28:34.198Z,102819.94
2022-08-09T13:32:17.841Z,102821.31
2022-08-09T13:33:54.151Z,102817.19
2022-08-09T13:36:24.422Z,102809.25
2022-08-09T13:41:17.395Z,102805.94
2022-08-09T13:42:12.251Z,102811.38
2022-08-09T13:44:42.594Z,102806.91
2022-08-09T13:47:26.887Z,102796.22
2022-08-09T13:49:57.782Z,102803.00
2022-08-09T13:52:29.264Z,102807.84
2022-08-09T13:55:00.224Z,102807.06
2022-08-09T13:57:35.610Z,102803.91
2022-08-09T14:00:07.474Z,102797.03
2022-08-09T14:02:36.235Z,102799.34
2022-08-09T14:05:09.762Z,102795.53
2022-08-09T14:07:41.064Z,102801.72
2022-08-09T14:10:17.017Z,102796.47
2022-08-09T14:12:44.236Z,102779.75
2022-08-09T14:16:07.210Z,102787.97
2022-08-09T14:18:18.877Z,102785.28
2022-08-09T14:20:43.977Z,102793.44
2022-08-09T14:23:20.438Z,102787.50
2022-08-09T14:26:01.443Z,102793.41
2022-08-09T14:28:28.044Z,102786.84
2022-08-09T14:30:54.423Z,102792.44
2022-08-09T14:33:21.517Z,102799.09
2022-08-09T14:35:52.352Z,102785.88
2022-08-09T14:38:19.806Z,102793.34
2022-08-09T14:41:02.315Z,102785.22
2022-08-09T14:43:46.909Z,102793.03
2022-08-09T14:46:46.311Z,102787.00
2022-08-09T14:49:02.743Z,102796.38
2022-08-09T14:51:30.129Z,102788.16
2022-08-09T14:53:56.648Z,102780.25
2022-08-09T14:56:26.949Z,102777.69
2022-08-09T14:58:56.163Z,102779.69
2022-08-09T15:01:24.277Z,102779.34
2022-08-09T15:03:50.780Z,102767.41
2022-08-09T15:06:17.244Z,102768.63
2022-08-09T15:08:46.338Z,102766.66
2022-08-09T15:11:22.904Z,102764.16
2022-08-09T15:14:04.101Z,102767.44
2022-08-09T15:16:31.399Z,102771.44
2022-08-09T15:18:59.802Z,102766.00
2022-08-09T15:21:56.202Z,102759.56
2022-08-09T15:24:23.324Z,102755.53
2022-08-09T15:26:53.871Z,102762.63
2022-08-09T15:30:55.354Z,102765.63
2022-08-09T15:32:29.192Z,102759.16
2022-08-09T15:34:53.865Z,102743.13
2022-08-09T15:37:23.496Z,102750.38
2022-08-09T15:39:55.075Z,102760.94
2022-08-09T15:42:21.947Z,102751.22
2022-08-09T15:44:48.978Z,102747.47
2022-08-09T15:47:22.703Z,102740.72
2022-08-09T15:50:00.618Z,102746.16
2022-08-09T15:52:35.606Z,102744.88
2022-08-09T15:55:03.990Z,102743.34
2022-08-09T15:57:35.029Z,102737.44
2022-08-09T16:00:08.326Z,102734.53
2022-08-09T16:02:34.733Z,102722.97
2022-08-09T16:05:03.931Z,102733.47
2022-08-09T16:07:39.075Z,102734.28
2022-08-09T16:10:08.040Z,102731.88
2022-08-09T16:12:50.565Z,102730.03
2022-08-09T16:16:04.629Z,102728.94
2022-08-09T16:18:06.536Z,102724.94
2022-08-09T16:20:35.634Z,102731.63
2022-08-09T16:23:05.653Z,102722.78
2022-08-09T16:25:40.242Z,102725.16
2022-08-09T16:28:07.374Z,102725.97
2022-08-09T16:30:33.876Z,102723.28
2022-08-09T16:33:01.482Z,102716.28
2022-08-09T16:35:57.110Z,102716.78
2022-08-09T16:38:14.477Z,102717.88
2022-08-09T16:40:44.556Z,102720.53
2022-08-09T16:43:12.220Z,102720.81
2022-08-09T16:45:44.338Z,102712.19
2022-08-09T16:48:49.523Z,102720.53
2022-08-09T16:50:59.648Z,102714.88
2022-08-09T16:53:34.712Z,102710.31
2022-08-09T16:56:06.279Z,102708.97
2022-08-09T16:58:36.864Z,102707.34
2022-08-09T17:01:04.579Z,102718.63
2022-08-09T17:03:31.713Z,102715.94
2022-08-09T17:06:09.408Z,102717.78
2022-08-09T17:09:00.034Z,102717.19
2022-08-09T17:11:41.074Z,102725.78
2022-08-09T17:14:25.730Z,102716.63
2022-08-09T17:16:59.446Z,102721.16
2022-08-09T17:19:26.945Z,102718.47
2022-08-09T17:22:13.758Z,102725.94
2022-08-09T17:24:41.381Z,102723.81
2022-08-09T17:27:15.365Z,102726.47
2022-08-09T17:29:45.509Z,102725.09
2022-08-09T17:32:15.783Z,102725.59
2022-08-09T17:35:02.009Z,102739.75
2022-08-09T17:37:32.947Z,102732.66
2022-08-09T17:40:19.384Z,102735.84
2022-08-09T17:42:47.142Z,102732.53
2022-08-09T17:45:15.856Z,102744.28
2022-08-09T17:47:55.102Z,102749.66
2022-08-09T17:50:36.204Z,102744.75
2022-08-09T17:53:04.738Z,102750.59
2022-08-09T17:55:49.131Z,102751.06
2022-08-09T17:58:16.102Z,102750.75
2022-08-09T18:00:46.429Z,102750.97
2022-08-09T18:03:13.427Z,102747.75
2022-08-09T18:05:43.543Z,102750.09
2022-08-09T18:08:10.959Z,102747.59
2022-08-09T18:10:39.884Z,102748.31
2022-08-09T18:13:43.432Z,102749.00
2022-08-09T18:16:07.436Z,102746.22
2022-08-09T18:18:36.015Z,102753.16
2022-08-09T18:21:21.450Z,102752.53
2022-08-09T18:24:09.675Z,102754.53
2022-08-09T18:26:49.494Z,102750.66
2022-08-09T18:30:40.183Z,102744.34
2022-08-09T18:32:06.293Z,102756.28
2022-08-09T18:34:33.637Z,102747.88
2022-08-09T18:36:59.963Z,102748.28
2022-08-09T18:39:32.754Z,102752.19
2022-08-09T18:42:01.286Z,102754.22
2022-08-09T18:44:28.779Z,102756.00
2022-08-09T18:47:07.580Z,102757.78
2022-08-09T18:49:41.612Z,102757.63
2022-08-09T18:52:11.665Z,102758.25
2022-08-09T18:54:39.190Z,102754.94
2022-08-09T18:57:12.281Z,102756.88
2022-08-09T18:59:51.396Z,102753.75
2022-08-09T19:02:30.699Z,102755.34
2022-08-09T19:05:04.085Z,102759.38
2022-08-09T19:07:41.699Z,102761.28
2022-08-09T19:10:18.110Z,102775.47
2022-08-09T19:12:59.531Z,102773.13
2022-08-09T19:15:31.324Z,102765.19
2022-08-09T19:17:58.586Z,102773.66
2022-08-09T19:20:25.909Z,102778.56
2022-08-09T19:22:54.510Z,102778.91
2022-08-09T19:25:42.741Z,102777.84
2022-08-09T19:28:08.976Z,102776.78
2022-08-09T19:30:44.471Z,102781.91
2022-08-09T19:33:19.574Z,102783.47
2022-08-09T19:35:57.272Z,102775.25
2022-08-09T19:38:25.707Z,102786.50
2022-08-09T19:40:52.606Z,102792.13
2022-08-09T19:44:02.272Z,102788.19
2022-08-09T19:46:05.654Z,102793.84
2022-08-09T19:49:01.938Z,102788.81
2022-08-09T19:51:18.359Z,102802.28
2022-08-09T19:53:47.751Z,102798.28
2022-08-09T19:56:15.513Z,102807.06
2022-08-09T19:58:42.242Z,102799.59
2022-08-09T20:01:23.884Z,102809.72
2022-08-09T20:04:16.943Z,102802.00
2022-08-09T20:06:37.549Z,102802.09
2022-08-09T20:09:04.493Z,102804.66
2022-08-09T20:11:33.916Z,102805.56
2022-08-09T20:14:10.341Z,102804.81
2022-08-09T20:16:53.177Z,102813.47
2022-08-09T20:19:48.869Z,102811.50
2022-08-09T20:22:08.989Z,102809.41
2022-08-09T20:24:36.633Z,102813.59
2022-08-09T20:27:08.357Z,102817.13
2022-08-09T20:29:37.414Z,102818.44
2022-08-09T20:32:29.978Z,102811.31
2022-08-09T20:34:56.168Z,102817.09
2022-08-09T20:37:22.918Z,102821.41
2022-08-09T20:40:16.347Z,102824.69
2022-08-09T20:42:37.794Z,102823.50
2022-08-09T20:46:00.947Z,102826.19
2022-08-09T20:47:51.377Z,102831.53
2022-08-09T20:50:47.133Z,102819.72
2022-08-09T20:53:04.311Z,102824.63
2022-08-09T20:55:47.508Z,102831.78
2022-08-09T20:58:26.885Z,102829.34
2022-08-09T21:01:02.276Z,102834.91
2022-08-09T21:05:48.749Z,102828.56
2022-08-09T21:06:32.681Z,102827.78
2022-08-09T21:09:01.670Z,102835.53
2022-08-09T21:14:15.441Z,102841.47
2022-08-09T21:16:43.728Z,102839.88
2022-08-09T21:20:19.479Z,102837.41
2022-08-09T21:21:58.432Z,102829.44
2022-08-09T21:24:28.480Z,102831.47
2022-08-09T21:26:59.258Z,102833.31
2022-08-09T21:29:25.612Z,102832.50
2022-08-09T21:31:51.968Z,102834.13
2022-08-09T21:34:28.868Z,102828.81
2022-08-09T21:36:56.411Z,102835.53
2022-08-09T21:39:28.206Z,102837.97
2022-08-09T21:42:10.400Z,102840.00
2022-08-09T21:44:37.938Z,102840.00
2022-08-09T21:47:07.680Z,102836.31
2022-08-09T21:49:39.655Z,102839.38
2022-08-09T21:52:17.747Z,102843.66
2022-08-09T21:54:59.342Z,102843.63
2022-08-09T21:57:38.788Z,102828.13
2022-08-09T22:00:25.441Z,102832.59
2022-08-09T22:02:58.753Z,102832.19
2022-08-09T22:05:36.013Z,102832.56
2022-08-09T22:08:05.677Z,102832.97
2022-08-09T22:10:32.291Z,102832.53
2022-08-09T22:13:00.853Z,102827.19
2022-08-09T22:15:34.990Z,102832.09
2022-08-09T22:18:01.660Z,102829.00
2022-08-09T22:20:31.463Z,102824.28
2022-08-09T22:22:58.305Z,102823.06
2022-08-09T22:26:05.907Z,102832.00
2022-08-09T22:28:11.560Z,102822.59
2022-08-09T22:30:39.050Z,102824.00
2022-08-09T22:33:17.181Z,102821.97
2022-08-09T22:36:02.052Z,102812.78
2022-08-09T22:38:29.955Z,102816.41
2022-08-09T22:40:57.760Z,102821.25
2022-08-09T22:43:26.463Z,102814.72
2022-08-09T22:48:11.989Z,102820.78
2022-08-09T22:49:01.875Z,102816.09
2022-08-09T22:51:38.072Z,102816.88
2022-08-09T22:54:05.558Z,102815.81
2022-08-09T22:56:34.934Z,102823.94
2022-08-09T22:59:55.715Z,102821.06
2022-08-09T23:01:52.626Z,102820.00
2022-08-09T23:04:19.833Z,102816.13
2022-08-09T23:06:46.268Z,102818.66
2022-08-09T23:09:15.148Z,102831.03
2022-08-09T23:11:41.655Z,102832.16
2022-08-09T23:14:10.064Z,102836.38
2022-08-09T23:16:43.803Z,102833.31
2022-08-09T23:19:10.159Z,102837.75
2022-08-09T23:21:38.489Z,102833.66
2022-08-09T23:24:07.297Z,102828.78
2022-08-09T23:26:35.289Z,102835.88
2022-08-09T23:29:01.735Z,102830.97
2022-08-09T23:31:28.132Z,102823.41
2022-08-09T23:33:54.657Z,102826.44
2022-08-09T23:36:21.233Z,102825.19
2022-08-09T23:38:48.417Z,102828.19
2022-08-09T23:41:28.835Z,102821.84
2022-08-09T23:43:57.031Z,102822.69
2022-08-09T23:46:23.348Z,102817.56
2022-08-09T23:48:49.748Z,102815.28
2022-08-09T23:51:16.104Z,102810.59
2022-08-09T23:53:42.446Z,102818.88
2022-08-09T23:56:08.835Z,102818.97
2022-08-09T23:58:35.439Z,102817.09
